createdAt,value
2017-12-20T00:00:35.450Z,33.80
2017-12-20T00:03:03.271Z,33.80
2017-12-20T00:05:31.881Z,33.60
2017-12-20T00:07:59.669Z,33.60
2017-12-20T00:10:27.521Z,32.60
2017-12-20T00:12:55.360Z,33.20
2017-12-20T00:15:23.937Z,33.00
2017-12-20T00:17:52.530Z,32.80
2017-12-20T00:20:20.368Z,32.90
2017-12-20T00:22:48.206Z,33.10
2017-12-20T00:25:15.992Z,34.10
2017-12-20T00:27:43.861Z,33.20
2017-12-20T00:30:11.725Z,33.60
2017-12-20T00:32:39.573Z,33.30
2017-12-20T00:35:07.449Z,33.30
2017-12-20T00:37:35.271Z,34.20
2017-12-20T00:40:03.094Z,33.00
2017-12-20T00:42:30.921Z,32.90
2017-12-20T00:44:58.731Z,33.10
2017-12-20T00:47:27.317Z,33.30
2017-12-20T00:49:55.881Z,33.20
2017-12-20T00:52:23.708Z,33.00
2017-12-20T00:54:51.499Z,32.70
2017-12-20T00:57:19.281Z,32.50
2017-12-20T00:59:47.121Z,32.40
2017-12-20T01:02:14.936Z,33.50
2017-12-20T01:04:43.564Z,32.70
2017-12-20T01:07:12.277Z,33.80
2017-12-20T01:09:40.078Z,34.40
2017-12-20T01:12:08.629Z,33.80
2017-12-20T01:14:36.417Z,33.80
2017-12-20T01:17:04.964Z,32.20
2017-12-20T01:19:32.787Z,32.10
2017-12-20T01:22:00.584Z,32.80
2017-12-20T01:24:28.377Z,32.70
2017-12-20T01:26:56.195Z,33.70
2017-12-20T01:29:24.003Z,31.80
2017-12-20T01:31:51.808Z,32.10
2017-12-20T01:34:19.599Z,31.40
2017-12-20T01:36:47.402Z,30.60
2017-12-20T01:39:15.202Z,31.10
2017-12-20T01:41:43.098Z,31.20
2017-12-20T01:44:10.898Z,31.90
2017-12-20T01:46:38.723Z,31.80
2017-12-20T01:49:06.512Z,31.40
2017-12-20T01:51:35.090Z,30.50
2017-12-20T01:54:02.947Z,30.50
2017-12-20T01:56:30.844Z,30.30
2017-12-20T01:58:58.754Z,30.70
2017-12-20T02:01:26.524Z,30.40
2017-12-20T02:03:54.358Z,30.30
2017-12-20T02:06:22.936Z,29.80
2017-12-20T02:08:51.526Z,29.70
2017-12-20T02:11:20.085Z,29.80
2017-12-20T02:13:47.929Z,29.80
2017-12-20T02:16:15.733Z,29.80
2017-12-20T02:18:44.345Z,29.40
2017-12-20T02:21:12.261Z,29.40
2017-12-20T02:23:40.076Z,29.50
2017-12-20T02:26:07.989Z,30.00
2017-12-20T02:28:35.890Z,30.10
2017-12-20T02:31:04.536Z,30.40
2017-12-20T02:33:36.280Z,30.40
2017-12-20T02:36:04.141Z,29.90
2017-12-20T02:38:38.647Z,30.10
2017-12-20T02:41:07.514Z,30.00
2017-12-20T02:43:35.406Z,31.00
2017-12-20T02:46:03.329Z,30.20
2017-12-20T02:48:31.977Z,30.80
2017-12-20T02:50:59.856Z,30.70
2017-12-20T02:53:27.786Z,30.40
2017-12-20T02:55:55.718Z,30.90
2017-12-20T02:58:24.353Z,31.00
2017-12-20T03:00:52.255Z,31.00
2017-12-20T03:03:20.160Z,31.00
2017-12-20T03:05:48.036Z,31.90
2017-12-20T03:08:15.911Z,31.70
2017-12-20T03:10:43.732Z,31.50
2017-12-20T03:13:12.408Z,32.40
2017-12-20T03:15:40.252Z,31.90
2017-12-20T03:18:08.063Z,31.50
2017-12-20T03:20:36.605Z,31.80
2017-12-20T03:23:04.421Z,31.80
2017-12-20T03:25:32.247Z,31.80
2017-12-20T03:28:00.086Z,32.00
2017-12-20T03:30:27.925Z,32.10
2017-12-20T03:32:55.748Z,31.70
2017-12-20T03:35:23.586Z,32.10
2017-12-20T03:37:51.453Z,32.00
2017-12-20T03:40:19.248Z,32.30
2017-12-20T03:42:47.069Z,31.90
2017-12-20T03:45:14.873Z,32.40
2017-12-20T03:47:42.694Z,32.60
2017-12-20T03:50:10.556Z,32.50
2017-12-20T03:52:38.450Z,32.70
2017-12-20T03:55:06.287Z,32.50
2017-12-20T03:57:34.095Z,33.10
2017-12-20T04:00:01.930Z,33.10
2017-12-20T04:02:29.776Z,32.60
2017-12-20T04:04:57.569Z,33.00
2017-12-20T04:07:25.364Z,33.60
2017-12-20T04:09:53.264Z,32.60
2017-12-20T04:12:21.190Z,31.70
2017-12-20T04:14:49.088Z,32.20
2017-12-20T04:17:16.994Z,32.20
2017-12-20T04:19:44.840Z,32.80
2017-12-20T04:22:12.699Z,32.30
2017-12-20T04:24:40.811Z,32.30
2017-12-20T04:27:08.692Z,32.40
2017-12-20T04:29:36.538Z,32.20
2017-12-20T04:32:04.388Z,32.40
2017-12-20T04:34:32.162Z,32.50
2017-12-20T04:36:59.972Z,32.60
2017-12-20T04:39:28.570Z,32.40
2017-12-20T04:41:57.191Z,32.30
2017-12-20T04:44:25.063Z,32.30
2017-12-20T04:46:52.995Z,32.70
2017-12-20T04:49:20.804Z,33.00
2017-12-20T04:51:48.644Z,32.30
2017-12-20T04:54:16.416Z,33.50
2017-12-20T04:56:44.241Z,33.20
2017-12-20T04:59:12.021Z,34.10
2017-12-20T05:01:39.947Z,34.50
2017-12-20T05:04:07.827Z,32.60
2017-12-20T05:06:35.600Z,33.50
2017-12-20T05:09:04.289Z,33.20
2017-12-20T05:11:32.920Z,32.90
2017-12-20T05:14:00.798Z,32.70
2017-12-20T05:16:28.568Z,33.30
2017-12-20T05:18:56.443Z,33.60
2017-12-20T05:21:24.276Z,33.10
2017-12-20T05:23:52.048Z,33.10
2017-12-20T05:26:19.896Z,33.20
2017-12-20T05:28:47.756Z,33.80
2017-12-20T05:31:15.574Z,33.90
2017-12-20T05:33:43.401Z,32.80
2017-12-20T05:36:11.259Z,33.60
2017-12-20T05:38:39.060Z,33.20
2017-12-20T05:41:06.935Z,33.20
2017-12-20T05:43:34.793Z,33.40
2017-12-20T05:46:02.599Z,33.90
2017-12-20T05:48:31.219Z,33.10
2017-12-20T05:50:59.023Z,33.10
2017-12-20T05:53:27.568Z,32.90
2017-12-20T05:55:55.394Z,32.80
2017-12-20T05:58:23.264Z,32.80
2017-12-20T06:00:51.074Z,33.00
2017-12-20T06:03:18.869Z,33.10
2017-12-20T06:05:46.659Z,32.60
2017-12-20T06:08:14.501Z,33.20
2017-12-20T06:10:43.058Z,32.40
2017-12-20T06:13:11.648Z,32.30
2017-12-20T06:15:39.430Z,32.30
2017-12-20T06:18:07.987Z,33.50
2017-12-20T06:20:35.788Z,32.80
2017-12-20T06:23:04.457Z,33.00
2017-12-20T06:25:32.282Z,33.00
2017-12-20T06:28:00.175Z,33.40
2017-12-20T06:30:28.008Z,32.70
2017-12-20T06:32:55.810Z,32.70
2017-12-20T06:35:23.613Z,32.60
2017-12-20T06:37:51.433Z,32.60
2017-12-20T06:40:19.240Z,33.00
2017-12-20T06:42:47.032Z,33.10
2017-12-20T06:45:14.889Z,33.20
2017-12-20T06:47:42.693Z,32.90
2017-12-20T06:50:10.550Z,33.00
2017-12-20T06:52:38.438Z,33.30
2017-12-20T06:55:06.242Z,33.70
2017-12-20T06:57:34.199Z,32.80
2017-12-20T07:00:02.077Z,33.30
2017-12-20T07:02:29.909Z,34.10
2017-12-20T07:04:58.585Z,32.80
2017-12-20T07:07:26.400Z,32.80
2017-12-20T07:09:54.220Z,33.40
2017-12-20T07:12:22.087Z,32.90
2017-12-20T07:14:50.707Z,32.50
2017-12-20T07:17:18.495Z,32.50
2017-12-20T07:19:46.305Z,32.80
2017-12-20T07:22:14.895Z,32.70
2017-12-20T07:24:43.479Z,32.60
2017-12-20T07:27:12.063Z,32.60
2017-12-20T07:29:40.611Z,32.70
2017-12-20T07:32:08.392Z,32.70
2017-12-20T07:34:36.217Z,32.90
2017-12-20T07:37:04.054Z,33.00
2017-12-20T07:39:31.951Z,33.50
2017-12-20T07:41:59.777Z,33.10
2017-12-20T07:44:28.345Z,33.10
2017-12-20T07:46:56.157Z,33.10
2017-12-20T07:49:24.034Z,33.00
2017-12-20T07:51:51.833Z,33.70
2017-12-20T07:54:20.516Z,33.00
2017-12-20T07:56:48.392Z,33.10
2017-12-20T07:59:16.282Z,33.10
2017-12-20T08:01:45.182Z,33.10
2017-12-20T08:04:12.982Z,33.10
2017-12-20T08:06:40.773Z,33.10
2017-12-20T08:09:08.543Z,33.10
2017-12-20T08:11:36.459Z,33.10
2017-12-20T08:14:04.299Z,33.50
2017-12-20T08:16:32.882Z,33.60
2017-12-20T08:19:00.703Z,33.60
2017-12-20T08:21:28.525Z,33.30
2017-12-20T08:23:56.383Z,33.20
2017-12-20T08:26:24.451Z,33.30
2017-12-20T08:28:52.278Z,33.60
2017-12-20T08:31:20.165Z,32.60
2017-12-20T08:33:48.740Z,32.70
2017-12-20T08:36:17.293Z,32.80
2017-12-20T08:38:45.214Z,32.80
2017-12-20T08:41:13.037Z,32.60
2017-12-20T08:43:40.845Z,32.70
2017-12-20T08:46:09.420Z,32.50
2017-12-20T08:48:38.092Z,32.30
2017-12-20T08:51:06.782Z,32.70
2017-12-20T08:53:34.624Z,32.70
2017-12-20T08:56:02.469Z,32.90
2017-12-20T08:58:30.248Z,33.20
2017-12-20T09:00:58.062Z,33.20
2017-12-20T09:03:25.965Z,33.50
2017-12-20T09:05:53.754Z,32.70
2017-12-20T09:08:21.600Z,32.20
2017-12-20T09:10:49.486Z,32.20
2017-12-20T09:13:17.288Z,32.30
2017-12-20T09:15:45.208Z,32.70
2017-12-20T09:18:13.098Z,32.70
2017-12-20T09:20:40.904Z,32.50
2017-12-20T09:23:08.733Z,32.80
2017-12-20T09:25:37.505Z,33.30
2017-12-20T09:28:05.370Z,33.20
2017-12-20T09:30:33.235Z,33.10
2017-12-20T09:33:01.097Z,33.00
2017-12-20T09:35:28.952Z,32.80
2017-12-20T09:37:56.751Z,32.80
2017-12-20T09:40:25.345Z,33.00
2017-12-20T09:42:53.997Z,33.00
2017-12-20T09:45:21.879Z,33.00
2017-12-20T09:47:50.541Z,32.10
2017-12-20T09:50:18.438Z,32.00
2017-12-20T09:52:47.036Z,31.50
2017-12-20T09:55:14.810Z,31.60
2017-12-20T09:57:42.619Z,31.30
2017-12-20T10:00:10.444Z,31.20
2017-12-20T10:02:38.312Z,31.00
2017-12-20T10:05:06.199Z,30.90
2017-12-20T10:07:34.040Z,30.80
2017-12-20T10:10:01.972Z,30.70
2017-12-20T10:12:30.616Z,31.90
2017-12-20T10:14:58.547Z,31.70
2017-12-20T10:17:26.362Z,31.00
2017-12-20T10:19:54.153Z,30.90
2017-12-20T10:22:22.083Z,30.90
2017-12-20T10:24:49.972Z,31.00
2017-12-20T10:27:17.821Z,31.40
2017-12-20T10:29:45.693Z,31.00
2017-12-20T10:32:13.537Z,30.20
2017-12-20T10:34:41.394Z,30.50
2017-12-20T10:37:09.209Z,31.30
2017-12-20T10:39:37.884Z,32.60
2017-12-20T10:42:05.733Z,32.50
2017-12-20T10:44:33.617Z,30.60
2017-12-20T10:47:01.456Z,31.30
2017-12-20T10:49:29.367Z,30.30
2017-12-20T10:51:57.188Z,30.60
2017-12-20T10:54:24.997Z,30.10
2017-12-20T10:56:52.795Z,31.50
2017-12-20T10:59:20.644Z,30.60
2017-12-20T11:01:49.245Z,30.70
2017-12-20T11:04:17.104Z,30.60
2017-12-20T11:06:45.049Z,30.50
2017-12-20T11:09:13.712Z,30.00
2017-12-20T11:11:41.532Z,30.00
2017-12-20T11:14:09.315Z,30.00
2017-12-20T11:16:37.133Z,30.60
2017-12-20T11:19:05.032Z,30.30
2017-12-20T11:21:32.892Z,30.50
2017-12-20T11:24:00.895Z,30.60
2017-12-20T11:26:28.695Z,31.50
2017-12-20T11:28:57.345Z,32.70
2017-12-20T11:31:25.279Z,32.20
2017-12-20T11:33:53.086Z,32.50
2017-12-20T11:36:20.991Z,32.60
2017-12-20T11:38:48.864Z,32.90
2017-12-20T11:41:16.675Z,31.10
2017-12-20T11:43:44.519Z,31.50
2017-12-20T11:46:12.431Z,31.80
2017-12-20T11:48:41.066Z,31.40
2017-12-20T11:51:08.939Z,31.30
2017-12-20T11:53:36.744Z,31.90
2017-12-20T11:56:04.568Z,31.50
2017-12-20T11:58:32.387Z,31.70
2017-12-20T12:01:00.288Z,31.90
2017-12-20T12:03:28.141Z,33.50
2017-12-20T12:05:56.033Z,32.60
2017-12-20T12:08:23.896Z,33.40
2017-12-20T12:10:51.784Z,31.60
2017-12-20T12:13:19.579Z,31.50
2017-12-20T12:15:47.366Z,33.50
2017-12-20T12:18:15.283Z,33.20
2017-12-20T12:20:43.213Z,32.00
2017-12-20T12:23:11.008Z,32.70
2017-12-20T12:25:38.925Z,34.30
2017-12-20T12:28:07.569Z,35.00
2017-12-20T12:30:36.217Z,35.00
2017-12-20T12:33:04.111Z,35.10
2017-12-20T12:35:31.928Z,35.00
2017-12-20T12:38:00.534Z,34.40
2017-12-20T12:40:28.410Z,34.40
2017-12-20T12:42:56.332Z,33.30
2017-12-20T12:45:24.990Z,31.60
2017-12-20T12:47:53.200Z,31.60
2017-12-20T12:50:22.029Z,31.00
2017-12-20T12:52:49.876Z,30.70
2017-12-20T12:55:17.713Z,31.40
2017-12-20T12:57:46.349Z,32.00
2017-12-20T13:00:16.087Z,32.00
2017-12-20T13:02:43.932Z,33.10
2017-12-20T13:05:11.789Z,33.80
2017-12-20T13:07:39.679Z,34.40
2017-12-20T13:10:07.505Z,33.50
2017-12-20T13:12:35.408Z,33.90
2017-12-20T13:15:03.265Z,33.00
2017-12-20T13:17:31.080Z,32.20
2017-12-20T13:19:59.727Z,33.60
2017-12-20T13:22:27.622Z,33.60
2017-12-20T13:24:56.299Z,33.30
2017-12-20T13:27:24.149Z,33.30
2017-12-20T13:29:51.967Z,34.30
2017-12-20T13:32:19.748Z,34.70
2017-12-20T13:34:47.615Z,34.80
2017-12-20T13:37:15.468Z,35.00
2017-12-20T13:39:43.301Z,35.10
2017-12-20T13:42:11.913Z,35.70
2017-12-20T13:44:39.784Z,35.70
2017-12-20T13:47:07.801Z,35.90
2017-12-20T13:49:35.692Z,36.90
2017-12-20T13:52:04.321Z,36.70
2017-12-20T13:54:32.179Z,36.70
2017-12-20T13:57:00.046Z,37.00
2017-12-20T13:59:28.047Z,37.00
2017-12-20T14:01:55.897Z,37.10
2017-12-20T14:04:23.729Z,37.10
2017-12-20T14:06:51.616Z,37.40
2017-12-20T14:09:19.535Z,37.70
2017-12-20T14:11:48.164Z,37.70
2017-12-20T14:14:16.006Z,37.70
2017-12-20T14:16:44.566Z,37.90
2017-12-20T14:19:12.428Z,37.80
2017-12-20T14:21:40.265Z,37.90
2017-12-20T14:24:08.129Z,38.40
2017-12-20T14:26:36.044Z,38.10
2017-12-20T14:29:04.727Z,38.50
2017-12-20T14:31:33.348Z,38.70
2017-12-20T14:34:01.164Z,38.80
2017-12-20T14:36:29.061Z,38.90
2017-12-20T14:38:56.877Z,39.70
2017-12-20T14:41:24.659Z,39.30
2017-12-20T14:43:52.578Z,40.10
2017-12-20T14:46:20.476Z,39.90
2017-12-20T14:48:48.376Z,40.00
2017-12-20T14:51:16.222Z,40.00
2017-12-20T14:53:44.047Z,40.20
2017-12-20T14:56:11.889Z,40.30
2017-12-20T14:58:39.801Z,40.60
2017-12-20T15:01:07.703Z,40.70
2017-12-20T15:03:35.557Z,40.90
2017-12-20T15:06:03.436Z,41.20
2017-12-20T15:08:32.161Z,41.60
2017-12-20T15:11:00.059Z,41.50
2017-12-20T15:13:27.878Z,42.40
2017-12-20T15:15:55.761Z,42.10
2017-12-20T15:18:23.696Z,42.30
2017-12-20T15:20:51.647Z,42.50
2017-12-20T15:23:20.212Z,44.00
2017-12-20T15:25:48.104Z,44.00
2017-12-20T15:28:16.737Z,43.50
2017-12-20T15:30:44.697Z,43.60
2017-12-20T15:33:12.529Z,43.80
2017-12-20T15:35:41.239Z,43.70
2017-12-20T15:38:09.152Z,43.70
2017-12-20T15:40:37.287Z,43.70
2017-12-20T15:43:05.243Z,43.90
2017-12-20T15:45:33.086Z,44.80
2017-12-20T15:48:01.768Z,44.60
2017-12-20T15:50:30.372Z,44.60
2017-12-20T15:52:58.248Z,44.60
2017-12-20T15:55:26.110Z,44.90
2017-12-20T15:57:53.986Z,45.20
2017-12-20T16:00:21.872Z,45.40
2017-12-20T16:02:49.734Z,45.50
2017-12-20T16:05:17.573Z,45.20
2017-12-20T16:07:45.391Z,45.60
2017-12-20T16:10:13.247Z,45.50
2017-12-20T16:12:41.075Z,45.40
2017-12-20T16:15:08.884Z,45.50
2017-12-20T16:17:36.820Z,45.40
2017-12-20T16:20:05.564Z,46.30
2017-12-20T16:22:33.543Z,45.80
2017-12-20T16:25:01.377Z,45.90
2017-12-20T16:27:29.238Z,45.80
2017-12-20T16:29:57.063Z,44.90
2017-12-20T16:32:24.921Z,44.40
2017-12-20T16:34:52.858Z,43.60
2017-12-20T16:37:21.577Z,43.80
2017-12-20T16:39:49.404Z,43.70
2017-12-20T16:42:17.289Z,43.90
2017-12-20T16:44:45.134Z,44.60
2017-12-20T16:47:13.797Z,44.30
2017-12-20T16:49:41.598Z,44.30
2017-12-20T16:52:10.247Z,44.40
2017-12-20T16:54:38.195Z,44.40
2017-12-20T16:57:06.021Z,44.50
2017-12-20T16:59:34.678Z,44.70
2017-12-20T17:02:02.549Z,44.60
2017-12-20T17:04:30.485Z,44.90
2017-12-20T17:06:58.365Z,45.00
2017-12-20T17:09:26.201Z,45.60
2017-12-20T17:11:54.082Z,45.20
2017-12-20T17:14:21.988Z,45.60
2017-12-20T17:16:49.864Z,45.70
2017-12-20T17:19:17.721Z,45.80
2017-12-20T17:21:45.530Z,45.60
2017-12-20T17:24:13.340Z,45.50
2017-12-20T17:26:41.184Z,45.30
2017-12-20T17:29:09.023Z,45.30
2017-12-20T17:31:36.920Z,45.60
2017-12-20T17:34:04.752Z,45.00
2017-12-20T17:36:32.581Z,45.00
2017-12-20T17:39:00.398Z,44.90
2017-12-20T17:41:28.238Z,44.40
2017-12-20T17:43:56.047Z,43.80
2017-12-20T17:46:23.916Z,43.70
2017-12-20T17:48:51.753Z,43.50
2017-12-20T17:51:19.605Z,43.50
2017-12-20T17:53:47.417Z,43.70
2017-12-20T17:56:15.298Z,43.30
2017-12-20T17:58:43.183Z,43.40
2017-12-20T18:01:11.832Z,43.10
2017-12-20T18:03:39.714Z,43.00
2017-12-20T18:06:07.571Z,42.90
2017-12-20T18:08:35.406Z,43.00
2017-12-20T18:11:03.255Z,42.80
2017-12-20T18:13:31.064Z,42.70
2017-12-20T18:15:58.962Z,42.80
2017-12-20T18:18:26.796Z,42.60
2017-12-20T18:20:54.640Z,42.50
2017-12-20T18:23:22.476Z,42.30
2017-12-20T18:25:50.320Z,42.60
2017-12-20T18:28:18.986Z,42.60
2017-12-20T18:30:46.903Z,42.60
2017-12-20T18:33:14.956Z,42.80
2017-12-20T18:35:43.581Z,42.80
2017-12-20T18:38:11.483Z,42.80
2017-12-20T18:40:40.243Z,43.30
2017-12-20T18:43:08.131Z,42.60
2017-12-20T18:45:36.000Z,42.70
2017-12-20T18:48:03.882Z,42.70
2017-12-20T18:50:32.507Z,42.60
2017-12-20T18:53:00.324Z,42.60
2017-12-20T18:55:28.213Z,42.50
2017-12-20T18:57:56.799Z,42.30
2017-12-20T19:00:24.721Z,42.30
2017-12-20T19:02:52.597Z,42.20
2017-12-20T19:05:20.478Z,42.50
2017-12-20T19:07:49.116Z,42.40
2017-12-20T19:10:16.944Z,42.40
2017-12-20T19:12:45.651Z,42.20
2017-12-20T19:15:13.479Z,42.20
2017-12-20T19:17:41.293Z,42.10
2017-12-20T19:20:09.124Z,42.20
2017-12-20T19:22:37.730Z,42.70
2017-12-20T19:25:05.578Z,42.70
2017-12-20T19:27:34.237Z,42.60
2017-12-20T19:30:02.088Z,42.60
2017-12-20T19:32:29.908Z,42.10
2017-12-20T19:34:57.805Z,42.50
2017-12-20T19:37:25.703Z,42.60
2017-12-20T19:39:53.507Z,42.50
2017-12-20T19:42:21.352Z,42.40
2017-12-20T19:44:50.025Z,42.60
2017-12-20T19:47:18.672Z,42.50
2017-12-20T19:49:47.325Z,42.40
2017-12-20T19:52:15.126Z,42.40
2017-12-20T19:54:42.915Z,42.50
2017-12-20T19:57:10.759Z,42.50
2017-12-20T19:59:38.570Z,42.40
2017-12-20T20:02:07.176Z,42.50
2017-12-20T20:04:34.997Z,42.50
2017-12-20T20:07:02.793Z,42.50
2017-12-20T20:09:30.719Z,42.30
2017-12-20T20:11:58.531Z,42.40
2017-12-20T20:14:26.383Z,42.50
2017-12-20T20:16:55.008Z,43.50
2017-12-20T20:19:23.739Z,42.80
2017-12-20T20:21:52.327Z,42.60
2017-12-20T20:24:20.925Z,42.70
2017-12-20T20:26:48.737Z,42.70
2017-12-20T20:29:16.562Z,42.80
2017-12-20T20:31:44.405Z,42.70
2017-12-20T20:34:13.113Z,43.00
2017-12-20T20:36:40.969Z,43.00
2017-12-20T20:39:08.818Z,43.10
2017-12-20T20:41:37.432Z,43.30
2017-12-20T20:44:05.237Z,43.20
2017-12-20T20:46:33.100Z,43.20
2017-12-20T20:49:00.915Z,43.20
2017-12-20T20:51:29.544Z,43.30
2017-12-20T20:53:57.325Z,43.30
2017-12-20T20:56:25.164Z,43.30
2017-12-20T20:58:53.039Z,43.40
2017-12-20T21:01:20.948Z,43.30
2017-12-20T21:03:49.516Z,43.30
2017-12-20T21:06:17.450Z,43.20
2017-12-20T21:08:45.289Z,43.30
2017-12-20T21:11:13.179Z,43.20
2017-12-20T21:13:40.976Z,43.10
2017-12-20T21:16:08.838Z,42.90
2017-12-20T21:18:36.676Z,43.20
2017-12-20T21:21:04.489Z,43.20
2017-12-20T21:23:33.110Z,43.20
2017-12-20T21:26:00.939Z,43.20
2017-12-20T21:28:29.519Z,43.20
2017-12-20T21:30:58.073Z,43.00
2017-12-20T21:33:25.922Z,42.90
2017-12-20T21:35:53.840Z,42.30
2017-12-20T21:38:22.446Z,42.30
2017-12-20T21:40:50.260Z,42.30
2017-12-20T21:43:18.102Z,42.50
2017-12-20T21:45:45.933Z,42.10
2017-12-20T21:48:14.507Z,43.10
2017-12-20T21:50:43.096Z,42.70
2017-12-20T21:53:11.006Z,42.70
2017-12-20T21:55:38.852Z,42.90
2017-12-20T21:58:06.696Z,43.00
2017-12-20T22:00:35.351Z,43.00
2017-12-20T22:03:03.228Z,43.00
2017-12-20T22:05:31.033Z,42.80
2017-12-20T22:07:58.887Z,42.50
2017-12-20T22:10:26.729Z,42.80
2017-12-20T22:12:55.423Z,42.80
2017-12-20T22:15:24.106Z,42.80
2017-12-20T22:17:52.756Z,42.80
2017-12-20T22:20:20.612Z,42.90
2017-12-20T22:22:48.447Z,42.50
2017-12-20T22:25:16.266Z,42.80
2017-12-20T22:27:44.098Z,42.90
2017-12-20T22:30:11.954Z,42.90
2017-12-20T22:32:39.794Z,42.90
2017-12-20T22:35:08.366Z,42.80
2017-12-20T22:37:36.920Z,42.90
2017-12-20T22:40:04.750Z,43.00
2017-12-20T22:42:32.575Z,43.00
2017-12-20T22:45:01.144Z,42.90
2017-12-20T22:47:29.084Z,42.90
2017-12-20T22:49:56.928Z,43.00
2017-12-20T22:52:24.777Z,42.90
2017-12-20T22:54:52.572Z,42.90
2017-12-20T22:57:20.353Z,42.70
2017-12-20T22:59:48.229Z,43.00
2017-12-20T23:02:16.003Z,43.20
2017-12-20T23:04:43.830Z,43.20
2017-12-20T23:07:11.612Z,43.20
2017-12-20T23:09:39.388Z,43.20
2017-12-20T23:12:07.218Z,43.30
2017-12-20T23:14:35.056Z,43.20
2017-12-20T23:17:02.888Z,43.20
2017-12-20T23:19:30.694Z,43.10
2017-12-20T23:21:58.498Z,43.10
2017-12-20T23:24:26.472Z,43.10
2017-12-20T23:26:54.266Z,43.10
2017-12-20T23:29:22.823Z,43.30
2017-12-20T23:31:50.662Z,43.30
2017-12-20T23:34:18.492Z,43.10
2017-12-20T23:36:47.084Z,43.20
2017-12-20T23:39:14.878Z,43.20
2017-12-20T23:41:42.742Z,43.10
2017-12-20T23:44:10.619Z,43.30
2017-12-20T23:46:38.554Z,43.30
2017-12-20T23:49:06.427Z,43.40
2017-12-20T23:51:34.253Z,43.40
2017-12-20T23:54:02.068Z,43.50
2017-12-20T23:56:29.879Z,43.40
2017-12-20T23:58:57.687Z,43.50
